Time;durP1;ratioP1;P1;durP2;ratioP2;P2;SDS_P1;SDS_P2;PMS_P1;PMS_P2;Temp;Humidity;BMP_temperature;BMP_pressure;BME280_temperature;BME280_humidity;BME280_pressure;Samples;Min_cycle;Max_cycle;Signal;HPM_P1;HPM_P2
2021/08/27 00:00:10;;;;;;;12.23;2.22;;;14.30;99.90;;;;;;4949469;28;20062;-58
2021/08/27 00:02:37;;;;;;;10.65;1.98;;;14.30;99.90;;;;;;4965712;28;20540;-58
2021/08/27 00:05:07;;;;;;;11.65;2.03;;;14.30;99.90;;;;;;4960847;28;20109;-57
2021/08/27 00:07:39;;;;;;;9.38;2.72;;;14.20;99.90;;;;;;4953313;28;20085;-58
2021/08/27 00:10:06;;;;;;;10.85;2.47;;;14.20;99.90;;;;;;4941596;28;20137;-57
2021/08/27 00:12:36;;;;;;;11.18;2.53;;;14.30;99.90;;;;;;4930774;29;20119;-57
2021/08/27 00:15:09;;;;;;;10.93;2.47;;;14.30;99.90;;;;;;4951498;28;20504;-58
2021/08/27 00:17:38;;;;;;;11.93;2.80;;;14.30;99.90;;;;;;4950507;28;20138;-58
2021/08/27 00:20:08;;;;;;;9.18;2.45;;;14.30;99.90;;;;;;4952892;28;20381;-58
2021/08/27 00:22:40;;;;;;;8.73;1.88;;;14.30;99.90;;;;;;4960749;28;20061;-57
2021/08/27 00:25:07;;;;;;;9.65;1.95;;;14.30;99.90;;;;;;4965260;28;20055;-58
2021/08/27 00:27:33;;;;;;;13.75;2.80;;;14.40;99.90;;;;;;4949485;29;20090;-58
2021/08/27 00:30:02;;;;;;;8.82;2.25;;;14.40;99.90;;;;;;4955932;28;20503;-58
2021/08/27 00:32:32;;;;;;;7.68;1.70;;;14.40;99.90;;;;;;4930379;28;20508;-58
2021/08/27 00:35:04;;;;;;;10.55;3.88;;;14.40;99.90;;;;;;4951916;28;20103;-57
2021/08/27 00:37:35;;;;;;;13.00;2.67;;;14.50;99.90;;;;;;4955001;28;20063;-57
2021/08/27 00:40:04;;;;;;;8.93;3.15;;;14.50;99.90;;;;;;4953458;28;20088;-57
2021/08/27 00:42:32;;;;;;;9.52;2.30;;;14.50;99.90;;;;;;4954150;28;20452;-57
2021/08/27 00:44:59;;;;;;;10.20;2.50;;;14.50;99.90;;;;;;4950604;28;20070;-58
2021/08/27 00:47:25;;;;;;;6.70;1.95;;;14.50;99.90;;;;;;4955362;28;20059;-57
2021/08/27 00:49:57;;;;;;;8.85;2.30;;;14.50;99.90;;;;;;4931620;29;20504;-58
2021/08/27 00:52:24;;;;;;;11.10;2.55;;;14.50;99.90;;;;;;4953009;28;20150;-58
2021/08/27 00:54:52;;;;;;;9.27;2.72;;;14.50;99.90;;;;;;4956130;28;20047;-58
2021/08/27 00:57:22;;;;;;;4.38;1.60;;;14.50;99.90;;;;;;4960144;28;20059;-58
2021/08/27 00:59:52;;;;;;;10.60;2.40;;;14.50;99.90;;;;;;4965322;28;20054;-58
2021/08/27 01:02:21;;;;;;;10.15;3.53;;;14.50;99.90;;;;;;4966197;28;20422;-58
2021/08/27 01:04:48;;;;;;;7.57;1.92;;;14.60;99.90;;;;;;4957964;28;20069;-58
2021/08/27 01:07:20;;;;;;;10.25;2.53;;;14.50;99.90;;;;;;4956785;28;20059;-58
2021/08/27 01:10:07;;;;;;;8.30;2.15;;;14.60;99.90;;;;;;4953867;28;20059;-58
2021/08/27 01:12:52;;;;;;;9.35;2.35;;;14.50;99.90;;;;;;4965696;28;20051;-58
2021/08/27 01:15:43;;;;;;;7.60;2.35;;;14.50;99.90;;;;;;4956845;28;20094;-58
2021/08/27 01:18:55;;;;;;;9.13;2.35;;;14.50;99.90;;;;;;4963971;28;20062;-59
2021/08/27 01:21:30;;;;;;;12.23;2.97;;;14.60;99.90;;;;;;4919048;29;20531;-58
2021/08/27 01:24:04;;;;;;;8.00;2.20;;;14.50;99.90;;;;;;4930302;29;20158;-58
2021/08/27 01:26:47;;;;;;;9.50;2.28;;;14.50;99.90;;;;;;4927059;29;20583;-58
2021/08/27 01:29:19;;;;;;;7.72;2.70;;;14.50;99.90;;;;;;4926196;29;20085;-58
2021/08/27 01:32:04;;;;;;;11.13;2.75;;;14.50;99.90;;;;;;4918188;29;20118;-58
2021/08/27 01:34:38;;;;;;;8.82;2.03;;;14.50;99.90;;;;;;4926860;29;20138;-58
2021/08/27 01:37:15;;;;;;;7.85;2.25;;;14.50;99.90;;;;;;4911621;29;20198;-58
2021/08/27 01:39:45;;;;;;;9.32;2.58;;;14.50;99.90;;;;;;4927579;29;20047;-58
2021/08/27 01:42:19;;;;;;;10.95;2.78;;;14.50;99.90;;;;;;4925396;29;20182;-58
2021/08/27 01:44:56;;;;;;;8.90;2.70;;;14.50;99.90;;;;;;4928420;29;20076;-59
2021/08/27 01:47:26;;;;;;;8.80;3.10;;;14.60;99.90;;;;;;4927141;29;20052;-59
2021/08/27 01:49:53;;;;;;;10.65;2.72;;;14.50;99.90;;;;;;4926967;29;20090;-58
2021/08/27 01:52:21;;;;;;;10.23;2.88;;;14.50;99.90;;;;;;4927335;29;20048;-58
2021/08/27 01:54:50;;;;;;;13.13;3.17;;;14.50;99.90;;;;;;4911667;29;20059;-58
2021/08/27 01:57:17;;;;;;;9.00;2.65;;;14.40;99.90;;;;;;4943236;28;20062;-59
2021/08/27 01:59:49;;;;;;;10.85;2.30;;;14.50;99.90;;;;;;4967202;28;20054;-58
2021/08/27 02:02:18;;;;;;;11.45;3.20;;;14.50;99.90;;;;;;4951453;28;20058;-59
2021/08/27 02:04:51;;;;;;;13.27;4.18;;;14.50;99.90;;;;;;4965896;28;20082;-63
2021/08/27 02:07:23;;;;;;;11.45;3.45;;;14.50;99.90;;;;;;4965356;28;20053;-57
2021/08/27 02:09:55;;;;;;;9.27;2.80;;;14.50;99.90;;;;;;4967782;28;20567;-57
2021/08/27 02:12:24;;;;;;;11.45;3.15;;;14.40;99.90;;;;;;4962950;28;20047;-58
2021/08/27 02:14:55;;;;;;;12.32;3.08;;;14.40;99.90;;;;;;4966291;28;20121;-58
2021/08/27 02:17:24;;;;;;;10.25;2.58;;;14.40;99.90;;;;;;4965435;28;20117;-58
2021/08/27 02:19:51;;;;;;;8.75;2.95;;;14.40;99.90;;;;;;4960162;28;20125;-57
2021/08/27 02:22:19;;;;;;;11.75;2.80;;;14.40;99.90;;;;;;4949766;28;20081;-57
2021/08/27 02:25:03;;;;;;;10.98;3.97;;;14.40;99.90;;;;;;4965891;28;20497;-58
2021/08/27 02:27:34;;;;;;;10.27;3.08;;;14.40;99.90;;;;;;4963924;28;20492;-56
2021/08/27 02:30:05;;;;;;;10.40;3.20;;;14.40;99.90;;;;;;4962418;28;20051;-52
2021/08/27 02:32:36;;;;;;;9.35;2.95;;;14.30;99.90;;;;;;4949464;28;20444;-55
2021/08/27 02:35:07;;;;;;;8.95;3.00;;;14.40;99.90;;;;;;4954772;28;20082;-55
2021/08/27 02:37:37;;;;;;;8.80;3.00;;;14.30;99.90;;;;;;4966611;28;20057;-55
2021/08/27 02:40:05;;;;;;;12.32;2.97;;;14.30;99.90;;;;;;4950841;28;20059;-52
2021/08/27 02:42:32;;;;;;;9.77;2.83;;;14.30;99.90;;;;;;4969140;28;20047;-50
2021/08/27 02:44:59;;;;;;;11.13;3.00;;;14.20;99.90;;;;;;4960841;28;20058;-53
2021/08/27 02:47:26;;;;;;;10.10;3.00;;;14.20;99.90;;;;;;4968402;28;20067;-48
2021/08/27 02:49:56;;;;;;;10.07;3.00;;;14.10;99.90;;;;;;4970003;28;20524;-50
2021/08/27 02:52:42;;;;;;;13.82;3.20;;;14.00;99.90;;;;;;4969901;28;20050;-51
2021/08/27 02:55:11;;;;;;;9.70;3.03;;;14.00;99.90;;;;;;4953717;28;20061;-54
2021/08/27 02:57:45;;;;;;;12.90;3.50;;;13.90;99.90;;;;;;4954251;28;20086;-53
2021/08/27 03:00:17;;;;;;;10.02;2.88;;;13.90;99.90;;;;;;4966613;28;20532;-54
2021/08/27 03:02:46;;;;;;;9.55;3.70;;;13.90;99.90;;;;;;4970794;28;20520;-52
2021/08/27 03:05:23;;;;;;;7.45;3.00;;;13.90;99.90;;;;;;4970541;28;20515;-48
2021/08/27 03:07:58;;;;;;;13.85;2.65;;;13.90;99.90;;;;;;4964134;28;20089;-54
2021/08/27 03:10:31;;;;;;;13.35;2.80;;;14.00;99.90;;;;;;4969648;28;20463;-52
2021/08/27 03:13:07;;;;;;;11.95;3.38;;;13.90;99.90;;;;;;4971031;28;20058;-52
2021/08/27 03:15:58;;;;;;;11.98;2.60;;;14.00;99.90;;;;;;4952222;28;20059;-53
2021/08/27 03:18:33;;;;;;;9.25;2.65;;;14.00;99.90;;;;;;4961911;28;20081;-53
2021/08/27 03:21:16;;;;;;;11.25;2.80;;;14.00;99.90;;;;;;4968068;28;20058;-50
2021/08/27 03:23:45;;;;;;;10.05;2.92;;;14.00;99.90;;;;;;4968601;28;20153;-53
2021/08/27 03:26:19;;;;;;;13.23;3.20;;;14.00;99.90;;;;;;4967551;28;20051;-52
2021/08/27 03:28:50;;;;;;;10.50;3.10;;;14.00;99.90;;;;;;4966971;28;20057;-49
2021/08/27 03:31:22;;;;;;;8.25;2.75;;;14.00;99.90;;;;;;4967061;28;20138;-53
2021/08/27 03:33:49;;;;;;;10.02;3.08;;;14.00;99.90;;;;;;4969413;28;20411;-53
2021/08/27 03:36:15;;;;;;;10.35;2.40;;;14.10;99.90;;;;;;4960544;28;20056;-53
2021/08/27 03:38:42;;;;;;;8.55;1.88;;;14.10;99.90;;;;;;4957593;28;20495;-52
2021/08/27 03:41:11;;;;;;;9.23;2.35;;;14.10;99.90;;;;;;4968173;28;20164;-52
2021/08/27 03:43:40;;;;;;;13.07;2.75;;;14.10;99.90;;;;;;4969591;28;20058;-51
2021/08/27 03:46:12;;;;;;;10.18;2.30;;;14.10;99.90;;;;;;4951164;28;20058;-53
2021/08/27 03:48:41;;;;;;;8.18;2.33;;;14.20;99.90;;;;;;4960595;28;20082;-52
2021/08/27 03:51:09;;;;;;;10.63;2.60;;;14.10;99.90;;;;;;4951560;28;20054;-55
2021/08/27 03:53:41;;;;;;;7.45;2.05;;;14.20;99.90;;;;;;4970021;28;20051;-49
2021/08/27 03:56:09;;;;;;;7.30;1.80;;;14.20;99.90;;;;;;4962615;28;20057;-49
2021/08/27 03:58:37;;;;;;;8.50;2.25;;;14.20;99.90;;;;;;4949357;28;20121;-51
2021/08/27 04:01:04;;;;;;;8.95;2.35;;;14.10;99.90;;;;;;4960327;28;20047;-52
2021/08/27 04:03:32;;;;;;;6.68;2.45;;;14.20;99.90;;;;;;4968825;28;20134;-52
2021/08/27 04:06:05;;;;;;;6.45;2.13;;;14.10;99.90;;;;;;4966868;28;20539;-54
2021/08/27 04:08:41;;;;;;;7.38;1.90;;;14.10;99.90;;;;;;4958422;28;20053;-52
2021/08/27 04:11:09;;;;;;;7.10;2.13;;;14.10;99.90;;;;;;4958127;28;20138;-51
2021/08/27 04:13:36;;;;;;;10.35;2.22;;;14.00;99.90;;;;;;4961739;28;20054;-52
2021/08/27 04:16:03;;;;;;;8.32;2.20;;;14.00;99.90;;;;;;4964576;28;20854;-51
2021/08/27 04:18:29;;;;;;;6.40;2.30;;;13.90;99.90;;;;;;4969846;28;20434;-53
2021/08/27 04:20:56;;;;;;;8.38;2.13;;;13.90;99.90;;;;;;4965469;28;20099;-53
2021/08/27 04:23:24;;;;;;;5.72;2.05;;;13.80;99.90;;;;;;4968865;28;20054;-51
2021/08/27 04:25:51;;;;;;;9.65;2.60;;;13.80;99.90;;;;;;4953954;28;20055;-50
2021/08/27 04:28:18;;;;;;;6.82;2.03;;;13.80;99.90;;;;;;4958788;28;20047;-51
2021/08/27 04:30:44;;;;;;;9.25;2.17;;;13.80;99.90;;;;;;4960706;28;20126;-50
2021/08/27 04:33:16;;;;;;;8.00;2.58;;;13.80;99.90;;;;;;4960039;28;20106;-52
2021/08/27 04:35:42;;;;;;;5.50;2.28;;;13.80;99.90;;;;;;4952411;28;20129;-50
2021/08/27 04:38:08;;;;;;;8.80;2.72;;;13.90;99.90;;;;;;4965548;28;20051;-51
2021/08/27 04:40:35;;;;;;;9.05;2.30;;;13.90;99.90;;;;;;4966272;28;20047;-53
2021/08/27 04:43:01;;;;;;;11.50;2.55;;;13.90;99.90;;;;;;4966817;28;20047;-52
2021/08/27 04:45:28;;;;;;;8.90;2.13;;;14.00;99.90;;;;;;4967692;28;20146;-49
2021/08/27 04:47:54;;;;;;;9.63;2.70;;;14.00;99.90;;;;;;4953309;28;20652;-51
2021/08/27 04:50:23;;;;;;;9.18;2.35;;;14.10;99.90;;;;;;4958863;28;20050;-54
2021/08/27 04:52:52;;;;;;;10.88;2.97;;;14.10;99.90;;;;;;4967798;28;20084;-53
2021/08/27 04:55:23;;;;;;;10.38;2.78;;;14.20;99.90;;;;;;4966230;28;20054;-52
2021/08/27 04:57:52;;;;;;;14.80;2.57;;;14.20;99.90;;;;;;4957663;28;20064;-54
2021/08/27 05:00:22;;;;;;;10.57;2.35;;;14.20;99.90;;;;;;4960040;28;20049;-54
2021/08/27 05:02:48;;;;;;;9.60;2.30;;;14.30;99.90;;;;;;4965729;28;20046;-55
2021/08/27 05:05:15;;;;;;;11.38;2.88;;;14.30;99.90;;;;;;4969448;28;20129;-56
2021/08/27 05:07:42;;;;;;;11.30;2.90;;;14.40;99.90;;;;;;4965289;28;20480;-49
2021/08/27 05:10:08;;;;;;;8.50;2.20;;;14.40;99.90;;;;;;4964598;28;20518;-50
2021/08/27 05:12:39;;;;;;;11.35;4.30;;;14.50;99.90;;;;;;4962450;28;20512;-50
2021/08/27 05:15:06;;;;;;;8.77;3.38;;;14.50;99.90;;;;;;4966202;28;20062;-50
2021/08/27 05:17:34;;;;;;;12.15;4.15;;;14.50;99.90;;;;;;4952959;28;20054;-49
2021/08/27 05:20:00;;;;;;;10.68;5.60;;;14.50;99.90;;;;;;4957528;28;20055;-50
2021/08/27 05:22:26;;;;;;;42.13;29.13;;;14.50;99.90;;;;;;4968935;28;20103;-46
2021/08/27 05:24:53;;;;;;;23.20;14.90;;;14.40;99.90;;;;;;4964118;28;20471;-46
2021/08/27 05:27:19;;;;;;;15.18;7.93;;;14.40;99.90;;;;;;4962891;28;20058;-50
2021/08/27 05:29:45;;;;;;;12.52;3.92;;;14.30;99.90;;;;;;4968797;28;20069;-46
2021/08/27 05:32:20;;;;;;;9.52;3.28;;;14.20;99.90;;;;;;4971711;28;20054;-49
2021/08/27 05:34:50;;;;;;;9.38;2.53;;;14.20;99.90;;;;;;4969199;28;20053;-49
2021/08/27 05:37:18;;;;;;;12.00;4.97;;;14.20;99.90;;;;;;4968415;28;20051;-47
2021/08/27 05:39:45;;;;;;;9.88;2.53;;;14.10;99.90;;;;;;4962150;28;20055;-53
2021/08/27 05:42:11;;;;;;;14.85;3.55;;;14.20;99.90;;;;;;4963057;28;20051;-47
2021/08/27 05:44:37;;;;;;;51.45;39.22;;;14.20;99.90;;;;;;4932270;29;20497;-50
2021/08/27 05:47:04;;;;;;;7.35;2.70;;;14.30;99.90;;;;;;4966099;28;20058;-47
2021/08/27 05:49:30;;;;;;;10.35;3.22;;;14.20;99.90;;;;;;4968848;28;20507;-49
2021/08/27 05:51:56;;;;;;;10.57;3.20;;;14.30;99.90;;;;;;4967934;28;20053;-49
2021/08/27 05:54:23;;;;;;;11.48;3.35;;;14.30;99.90;;;;;;4968646;28;20094;-53
2021/08/27 05:56:49;;;;;;;9.25;2.95;;;14.30;99.90;;;;;;4964269;28;20078;-52
2021/08/27 05:59:16;;;;;;;9.63;3.25;;;14.40;99.90;;;;;;4949223;29;20062;-53
2021/08/27 06:01:44;;;;;;;10.73;3.80;;;14.50;99.90;;;;;;4948578;29;20126;-54
2021/08/27 06:04:10;;;;;;;8.38;2.28;;;14.50;99.90;;;;;;4947341;29;20062;-54
2021/08/27 06:06:37;;;;;;;10.02;2.90;;;14.50;99.90;;;;;;4948414;29;20062;-50
2021/08/27 06:09:05;;;;;;;6.22;2.35;;;14.60;99.90;;;;;;4929921;29;20055;-52
2021/08/27 06:11:37;;;;;;;8.23;2.05;;;14.70;99.90;;;;;;4934347;29;20059;-49
2021/08/27 06:14:09;;;;;;;7.57;3.00;;;14.80;99.90;;;;;;4954207;28;20047;-50
2021/08/27 06:16:38;;;;;;;7.07;2.25;;;14.90;99.90;;;;;;4948610;29;20504;-55
2021/08/27 06:19:05;;;;;;;13.43;3.22;;;15.00;99.90;;;;;;4952514;29;20051;-51
2021/08/27 06:21:33;;;;;;;8.85;3.05;;;14.90;99.90;;;;;;4933531;29;20055;-51
2021/08/27 06:24:02;;;;;;;20.73;12.35;;;15.00;99.90;;;;;;4953127;29;20481;-49
2021/08/27 06:26:29;;;;;;;9.25;2.28;;;15.00;99.90;;;;;;4952898;29;20055;-50
2021/08/27 06:28:58;;;;;;;17.27;8.48;;;15.00;99.90;;;;;;4952881;28;20087;-50
2021/08/27 06:31:27;;;;;;;12.10;3.85;;;15.10;99.90;;;;;;4952379;29;20058;-52
2021/08/27 06:33:54;;;;;;;21.75;13.18;;;15.10;99.90;;;;;;4935594;29;20063;-51
2021/08/27 06:36:22;;;;;;;14.55;3.53;;;15.10;99.90;;;;;;4952025;29;20053;-49
2021/08/27 06:38:51;;;;;;;69.15;58.92;;;15.10;99.90;;;;;;4950232;28;20051;-54
2021/08/27 06:41:25;;;;;;;24.48;9.13;;;15.10;99.90;;;;;;4951786;28;20051;-53
2021/08/27 06:43:52;;;;;;;15.35;3.65;;;15.10;99.90;;;;;;4952599;29;20428;-54
2021/08/27 06:46:25;;;;;;;8.88;3.28;;;15.10;99.90;;;;;;4952285;29;20101;-52
2021/08/27 06:48:59;;;;;;;13.30;3.10;;;15.10;99.90;;;;;;4952300;29;20067;-53
2021/08/27 06:51:28;;;;;;;20.27;13.60;;;15.10;99.90;;;;;;4956242;28;20090;-55
2021/08/27 06:53:55;;;;;;;10.57;3.03;;;15.20;99.90;;;;;;4958009;28;20134;-56
2021/08/27 06:56:23;;;;;;;13.15;5.10;;;15.30;99.90;;;;;;4951965;28;20063;-56
2021/08/27 06:58:55;;;;;;;12.40;3.45;;;15.30;99.90;;;;;;4952251;28;20428;-53
2021/08/27 07:01:24;;;;;;;21.58;10.95;;;15.40;99.90;;;;;;4951600;29;20051;-57
2021/08/27 07:03:56;;;;;;;22.38;14.75;;;15.40;99.90;;;;;;4940938;29;20151;-58
2021/08/27 07:06:37;;;;;;;20.52;9.93;;;15.40;99.90;;;;;;4920970;29;20142;-59
2021/08/27 07:09:06;;;;;;;20.50;9.98;;;15.70;99.90;;;;;;4955185;28;20059;-58
2021/08/27 07:11:34;;;;;;;14.88;8.05;;;16.10;99.90;;;;;;4948621;29;20055;-59
2021/08/27 07:14:06;;;;;;;12.18;3.20;;;16.20;99.90;;;;;;4931210;29;20055;-58
2021/08/27 07:16:32;;;;;;;12.52;3.83;;;16.30;99.90;;;;;;4951785;29;20621;-59
2021/08/27 07:18:58;;;;;;;9.13;3.65;;;16.40;99.90;;;;;;4950153;29;20047;-58
2021/08/27 07:21:29;;;;;;;13.95;4.72;;;16.50;99.90;;;;;;4935212;29;20683;-60
2021/08/27 07:23:57;;;;;;;11.25;3.15;;;16.50;99.90;;;;;;4950093;28;20055;-60
2021/08/27 07:26:25;;;;;;;12.25;4.22;;;16.50;99.90;;;;;;4951900;29;20471;-60
2021/08/27 07:28:52;;;;;;;12.70;3.33;;;16.60;99.90;;;;;;4945693;28;20062;-59
2021/08/27 07:31:20;;;;;;;16.23;3.30;;;16.60;99.90;;;;;;4950140;29;20118;-59
2021/08/27 07:33:49;;;;;;;14.18;3.22;;;16.60;99.90;;;;;;4952170;28;20063;-59
2021/08/27 07:36:15;;;;;;;11.98;2.85;;;16.60;99.90;;;;;;4962735;28;20077;-60
2021/08/27 07:38:44;;;;;;;11.25;3.40;;;16.50;99.90;;;;;;4952942;28;20059;-59
2021/08/27 07:41:13;;;;;;;7.97;2.45;;;16.60;99.90;;;;;;4942706;29;20056;-60
2021/08/27 07:43:39;;;;;;;10.65;4.07;;;17.00;99.90;;;;;;4950946;29;20488;-59
2021/08/27 07:46:08;;;;;;;9.60;2.95;;;17.00;99.90;;;;;;4945272;29;20055;-59
2021/08/27 07:48:36;;;;;;;14.15;2.95;;;16.90;99.90;;;;;;4939544;29;20055;-59
2021/08/27 07:51:02;;;;;;;10.43;2.22;;;16.80;99.90;;;;;;4945343;29;20063;-59
2021/08/27 07:53:31;;;;;;;10.35;2.30;;;16.70;99.90;;;;;;4938447;29;20114;-58
2021/08/27 07:55:59;;;;;;;10.32;2.13;;;16.60;99.90;;;;;;4942760;29;20134;-58
2021/08/27 07:58:25;;;;;;;9.48;2.50;;;16.60;99.90;;;;;;4957678;28;20508;-59
2021/08/27 08:00:56;;;;;;;9.68;2.90;;;16.50;99.90;;;;;;4964851;28;20046;-57
2021/08/27 08:03:27;;;;;;;8.25;2.47;;;16.50;99.90;;;;;;4963815;28;20138;-59
2021/08/27 08:05:56;;;;;;;13.07;2.88;;;16.50;99.90;;;;;;4965922;28;20835;-58
2021/08/27 08:08:27;;;;;;;20.02;8.20;;;16.50;99.90;;;;;;4957825;28;20074;-58
2021/08/27 08:10:58;;;;;;;17.00;8.77;;;16.50;99.90;;;;;;4963309;28;20055;-58
2021/08/27 08:13:27;;;;;;;11.18;3.65;;;16.60;99.90;;;;;;4963374;28;20051;-58
2021/08/27 08:15:56;;;;;;;11.43;3.25;;;16.80;99.90;;;;;;4964670;28;20059;-58
2021/08/27 08:18:24;;;;;;;13.63;7.35;;;17.00;99.90;;;;;;4960790;28;20066;-59
2021/08/27 08:20:53;;;;;;;11.63;4.40;;;17.20;99.90;;;;;;4965858;28;20093;-56
2021/08/27 08:23:24;;;;;;;12.57;4.68;;;17.30;99.90;;;;;;4957886;28;20055;-56
2021/08/27 08:25:52;;;;;;;9.10;3.28;;;17.70;99.90;;;;;;4962654;28;20073;-56
2021/08/27 08:28:19;;;;;;;6.90;2.50;;;18.60;99.90;;;;;;4963601;28;20055;-57
2021/08/27 08:30:47;;;;;;;27.52;20.10;;;19.10;99.90;;;;;;4930576;29;20697;-56
2021/08/27 08:33:13;;;;;;;22.27;15.48;;;19.50;99.90;;;;;;4932570;28;20058;-57
2021/08/27 08:35:42;;;;;;;8.05;2.80;;;19.60;99.90;;;;;;4941692;28;20047;-57
2021/08/27 08:38:10;;;;;;;9.45;2.53;;;19.60;99.90;;;;;;4962334;28;20098;-56
2021/08/27 08:40:42;;;;;;;7.45;2.40;;;19.40;99.90;;;;;;4950243;28;20145;-56
2021/08/27 08:43:09;;;;;;;;;;;19.00;99.90;;;;;;4944227;28;20699;-56
2021/08/27 08:45:38;;;;;;;7.70;2.92;;;18.70;99.90;;;;;;4959308;28;19937;-56
2021/08/27 08:48:08;;;;;;;14.55;10.05;;;18.60;99.90;;;;;;4958511;28;20047;-57
2021/08/27 08:50:36;;;;;;;33.72;26.60;;;18.40;99.90;;;;;;4969272;28;20054;-57
2021/08/27 08:53:03;;;;;;;7.95;3.95;;;18.50;99.90;;;;;;4968840;28;20058;-56
2021/08/27 08:55:30;;;;;;;11.95;7.53;;;18.90;99.90;;;;;;4953836;28;20086;-56
2021/08/27 08:57:59;;;;;;;11.77;8.32;;;19.80;99.90;;;;;;4957221;28;20055;-58
2021/08/27 09:00:25;;;;;;;13.20;7.07;;;20.60;99.90;;;;;;4964149;28;20066;-58
2021/08/27 09:02:51;;;;;;;4.40;1.92;;;21.50;99.90;;;;;;4963815;28;20058;-57
2021/08/27 09:05:25;;;;;;;11.40;6.45;;;22.00;99.90;;;;;;4957480;28;20137;-58
2021/08/27 09:07:52;;;;;;;12.73;3.17;;;22.20;99.90;;;;;;4956477;28;20055;-58
2021/08/27 09:10:20;;;;;;;9.25;4.13;;;22.60;99.90;;;;;;4942204;28;20055;-58
2021/08/27 09:12:48;;;;;;;14.27;11.13;;;23.30;99.90;;;;;;4960397;28;20053;-58
2021/08/27 09:15:17;;;;;;;18.17;12.18;;;23.80;99.90;;;;;;4961429;28;20105;-58
2021/08/27 09:17:46;;;;;;;8.43;3.83;;;24.20;99.90;;;;;;4961604;28;20061;-58
2021/08/27 09:20:25;;;;;;;10.70;6.68;;;23.70;99.90;;;;;;4953348;28;20051;-58
2021/08/27 09:22:56;;;;;;;9.15;4.07;;;22.80;99.90;;;;;;4956538;28;20134;-59
2021/08/27 09:25:26;;;;;;;9.27;2.47;;;22.40;99.90;;;;;;4968288;28;20496;-59
2021/08/27 09:28:10;;;;;;;10.38;4.90;;;21.70;99.90;;;;;;4959797;28;20063;-59
2021/08/27 09:30:52;;;;;;;10.98;6.38;;;20.80;99.90;;;;;;4963395;28;20094;-59
2021/08/27 09:33:22;;;;;;;13.25;9.32;;;19.90;99.90;;;;;;4946123;28;20062;-60
2021/08/27 09:36:00;;;;;;;12.13;2.95;;;19.20;99.90;;;;;;4957978;28;20051;-57
2021/08/27 09:38:29;;;;;;;10.65;4.75;;;18.70;99.90;;;;;;4973633;28;20538;-58
2021/08/27 09:41:14;;;;;;;10.63;2.72;;;18.40;99.90;;;;;;4988200;28;20710;-57
2021/08/27 09:43:47;;;;;;;15.75;9.63;;;18.10;99.90;;;;;;4963315;28;20065;-57
2021/08/27 09:46:34;;;;;;;8.82;3.13;;;17.90;99.90;;;;;;4962517;28;20579;-57
2021/08/27 09:49:03;;;;;;;12.73;3.90;;;17.70;99.90;;;;;;4967329;28;20050;-57
2021/08/27 09:51:43;;;;;;;10.75;3.20;;;18.00;99.90;;;;;;4956367;28;20137;-57
2021/08/27 09:54:09;;;;;;;9.98;4.63;;;19.20;99.90;;;;;;4959784;28;20137;-57
2021/08/27 09:56:53;;;;;;;9.27;3.15;;;20.40;99.90;;;;;;4966763;28;20058;-58
2021/08/27 09:59:50;;;;;;;9.88;3.33;;;21.40;99.90;;;;;;4952713;29;20058;-58
2021/08/27 10:02:25;;;;;;;10.43;3.22;;;22.40;99.90;;;;;;4966621;28;20065;-57
2021/08/27 10:05:00;;;;;;;17.48;11.98;;;23.10;99.90;;;;;;4969930;28;20090;-58
2021/08/27 10:07:37;;;;;;;7.78;2.92;;;23.70;99.90;;;;;;4968182;28;20054;-58
2021/08/27 10:10:11;;;;;;;17.13;10.98;;;23.50;99.90;;;;;;4956352;28;20059;-58
2021/08/27 10:12:41;;;;;;;13.75;8.60;;;23.00;99.90;;;;;;4973085;28;20047;-58
2021/08/27 10:15:12;;;;;;;21.17;15.60;;;22.30;99.90;;;;;;4973140;28;20050;-59
2021/08/27 10:17:40;;;;;;;15.35;9.38;;;21.40;99.90;;;;;;4958640;28;20059;-58
2021/08/27 10:20:11;;;;;;;6.85;2.55;;;21.00;99.90;;;;;;4970630;28;20058;-57
2021/08/27 10:22:41;;;;;;;11.50;6.17;;;20.50;99.90;;;;;;4968846;28;20043;-58
2021/08/27 10:25:12;;;;;;;9.80;4.37;;;20.20;99.90;;;;;;4971673;28;20058;-58
2021/08/27 10:27:39;;;;;;;13.65;8.15;;;19.90;99.90;;;;;;4967563;28;20050;-57
2021/08/27 10:30:07;;;;;;;12.30;5.70;;;19.80;99.90;;;;;;4971556;28;20565;-57
2021/08/27 10:32:39;;;;;;;11.32;7.45;;;19.60;99.90;;;;;;4964745;28;20051;-58
2021/08/27 10:35:08;;;;;;;10.07;2.45;;;19.40;99.90;;;;;;4958029;28;20082;-57
2021/08/27 10:37:48;;;;;;;12.05;7.68;;;19.20;99.90;;;;;;4959493;28;20051;-57
2021/08/27 10:40:26;;;;;;;9.55;4.95;;;19.10;99.90;;;;;;4972261;28;20415;-57
2021/08/27 10:43:02;;;;;;;25.00;17.40;;;19.30;99.90;;;;;;4971192;28;20090;-54
2021/08/27 10:45:40;;;;;;;13.45;8.75;;;20.90;99.90;;;;;;4970737;28;20059;-55
2021/08/27 10:48:12;;;;;;;18.38;12.77;;;21.80;99.90;;;;;;4969651;28;20055;-57
2021/08/27 10:50:44;;;;;;;23.52;18.30;;;22.30;99.90;;;;;;4967914;28;20165;-57
2021/08/27 10:53:22;;;;;;;23.52;17.83;;;22.40;99.90;;;;;;4965921;28;20153;-58
2021/08/27 10:55:48;;;;;;;15.07;7.80;;;22.40;99.90;;;;;;4956540;28;20776;-57
2021/08/27 10:58:24;;;;;;;12.73;6.03;;;22.90;99.90;;;;;;4963518;28;20142;-58
2021/08/27 11:00:54;;;;;;;13.77;9.77;;;23.60;99.90;;;;;;4965574;28;20408;-58
2021/08/27 11:03:55;;;;;;;14.77;9.27;;;23.20;99.90;;;;;;4952164;28;20071;-56
2021/08/27 11:06:24;;;;;;;9.48;6.60;;;21.50;99.90;;;;;;4964843;28;20054;-59
2021/08/27 11:08:52;;;;;;;13.25;8.45;;;20.70;99.90;;;;;;4960438;28;20597;-58
2021/08/27 11:11:22;;;;;;;9.85;4.78;;;19.80;99.90;;;;;;4962751;28;20058;-58
2021/08/27 11:13:50;;;;;;;10.20;4.53;;;19.40;99.90;;;;;;4968392;28;20089;-57
2021/08/27 11:16:22;;;;;;;4.97;1.80;;;19.00;99.90;;;;;;4961830;28;20086;-58
2021/08/27 11:18:49;;;;;;;6.05;1.85;;;19.70;99.90;;;;;;4957584;28;20133;-58
2021/08/27 11:21:34;;;;;;;11.27;6.15;;;20.70;99.90;;;;;;4964292;28;20055;-58
2021/08/27 11:24:17;;;;;;;6.15;2.03;;;22.10;99.90;;;;;;4967723;28;20054;-59
2021/08/27 11:26:59;;;;;;;15.63;10.98;;;23.30;99.90;;;;;;4971125;28;20473;-48
2021/08/27 11:29:38;;;;;;;10.82;6.32;;;23.50;99.90;;;;;;4952325;28;20523;-49
2021/08/27 11:32:34;;;;;;;14.60;12.45;;;23.50;99.90;;;;;;4957464;28;20054;-47
2021/08/27 11:35:05;;;;;;;24.70;19.23;;;22.70;99.90;;;;;;4961946;28;20054;-46
2021/08/27 11:37:39;;;;;;;32.30;28.10;;;21.70;99.90;;;;;;4967536;28;20126;-50
2021/08/27 11:40:13;;;;;;;;;;;21.10;99.90;;;;;;4964636;28;20503;-48
2021/08/27 11:42:39;;;;;;;10.25;6.82;;;20.30;99.90;;;;;;4969425;28;19926;-46
2021/08/27 11:45:10;;;;;;;6.03;3.03;;;20.00;99.90;;;;;;4970391;28;20535;-48
2021/08/27 11:47:39;;;;;;;32.03;27.65;;;19.50;99.90;;;;;;4969570;28;20066;-46
2021/08/27 11:50:08;;;;;;;19.67;15.13;;;19.20;99.90;;;;;;4959954;28;20518;-47
2021/08/27 11:52:35;;;;;;;19.65;14.95;;;19.20;99.90;;;;;;4962272;28;20051;-46
2021/08/27 11:55:07;;;;;;;18.17;13.35;;;19.20;99.90;;;;;;4968639;28;20055;-47
2021/08/27 11:57:34;;;;;;;16.63;10.70;;;19.10;99.90;;;;;;4967319;28;20492;-48
2021/08/27 12:00:11;;;;;;;10.82;6.35;;;19.30;99.90;;;;;;4958562;28;20138;-48
2021/08/27 12:02:40;;;;;;;6.18;2.78;;;19.60;99.90;;;;;;4965551;28;20051;-47
2021/08/27 12:05:12;;;;;;;11.73;3.72;;;20.60;99.90;;;;;;4969312;28;20066;-47
2021/08/27 12:07:55;;;;;;;8.38;2.38;;;21.60;99.90;;;;;;4964428;28;20078;-50
2021/08/27 12:10:22;;;;;;;7.72;2.20;;;22.50;99.90;;;;;;4965731;28;20099;-49
2021/08/27 12:12:50;;;;;;;9.07;2.85;;;22.80;99.90;;;;;;4960150;28;20055;-47
2021/08/27 12:15:29;;;;;;;10.40;2.40;;;23.40;99.90;;;;;;4958932;28;20133;-48
2021/08/27 12:18:09;;;;;;;9.98;2.63;;;24.00;99.90;;;;;;4961830;28;20083;-48
2021/08/27 12:20:47;;;;;;;6.15;2.03;;;24.60;99.90;;;;;;4964221;28;20061;-48
2021/08/27 12:23:23;;;;;;;8.38;2.97;;;24.70;99.90;;;;;;4954114;28;20526;-47
2021/08/27 12:26:06;;;;;;;6.75;2.00;;;24.90;98.80;;;;;;4951678;28;20194;-48
2021/08/27 12:28:38;;;;;;;5.65;1.90;;;25.20;99.90;;;;;;4960818;28;20304;-47
2021/08/27 12:31:06;;;;;;;9.10;2.30;;;24.70;94.50;;;;;;4940323;28;20050;-51
2021/08/27 12:33:40;;;;;;;7.10;2.45;;;24.20;95.10;;;;;;4961993;28;20059;-48
2021/08/27 12:36:12;;;;;;;6.70;2.17;;;23.10;97.50;;;;;;4964862;28;20751;-46
2021/08/27 12:38:42;;;;;;;7.60;2.03;;;22.20;99.90;;;;;;4944038;28;20504;-46
2021/08/27 12:41:18;;;;;;;6.75;2.55;;;21.50;99.90;;;;;;4964884;28;20049;-48
2021/08/27 12:43:44;;;;;;;7.60;2.47;;;21.20;99.90;;;;;;4959251;28;20050;-45
2021/08/27 12:46:26;;;;;;;9.75;2.47;;;20.90;99.90;;;;;;4964100;28;20526;-48
2021/08/27 12:49:10;;;;;;;8.32;2.15;;;20.90;99.90;;;;;;4956110;28;20059;-47
2021/08/27 12:51:40;;;;;;;6.57;2.58;;;22.20;99.90;;;;;;4968436;28;20054;-46
2021/08/27 12:54:12;;;;;;;11.68;8.27;;;22.20;99.90;;;;;;4968591;28;20076;-47
2021/08/27 12:56:41;;;;;;;13.00;8.73;;;22.00;99.90;;;;;;4967587;28;20469;-50
2021/08/27 12:59:18;;;;;;;11.10;6.88;;;21.70;99.90;;;;;;4969228;28;20136;-47